sensor_id;sensor_type;location;lat;lon;timestamp;temperature;humidity
21123;DHT22;10719;48.130;11.630;2023-05-07T00:00:33;12.10;99.90
21123;DHT22;10719;48.130;11.630;2023-05-07T00:02:59;12.10;99.90
21123;DHT22;10719;48.130;11.630;2023-05-07T00:05:25;12.00;99.90
21123;DHT22;10719;48.130;11.630;2023-05-07T00:07:51;12.00;99.90
21123;DHT22;10719;48.130;11.630;2023-05-07T00:10:18;12.00;99.90
21123;DHT22;10719;48.130;11.630;2023-05-07T00:12:44;12.00;99.90
21123;DHT22;10719;48.130;11.630;2023-05-07T00:15:10;12.10;99.90
21123;DHT22;10719;48.130;11.630;2023-05-07T00:17:36;12.00;99.90
21123;DHT22;10719;48.130;11.630;2023-05-07T00:20:03;12.00;99.90
21123;DHT22;10719;48.130;11.630;2023-05-07T00:22:29;12.00;99.90
21123;DHT22;10719;48.130;11.630;2023-05-07T00:24:55;12.00;99.90
21123;DHT22;10719;48.130;11.630;2023-05-07T00:27:22;12.00;99.90
21123;DHT22;10719;48.130;11.630;2023-05-07T00:29:47;11.90;99.90
21123;DHT22;10719;48.130;11.630;2023-05-07T00:32:13;11.90;99.90
21123;DHT22;10719;48.130;11.630;2023-05-07T00:34:38;11.80;99.90
21123;DHT22;10719;48.130;11.630;2023-05-07T00:37:04;11.80;99.90
21123;DHT22;10719;48.130;11.630;2023-05-07T00:39:30;11.80;99.90
21123;DHT22;10719;48.130;11.630;2023-05-07T00:41:56;11.80;99.90
21123;DHT22;10719;48.130;11.630;2023-05-07T00:44:22;11.80;99.90
21123;DHT22;10719;48.130;11.630;2023-05-07T00:46:48;11.80;99.90
21123;DHT22;10719;48.130;11.630;2023-05-07T00:49:15;11.90;99.90
21123;DHT22;10719;48.130;11.630;2023-05-07T00:51:41;11.90;99.90
21123;DHT22;10719;48.130;11.630;2023-05-07T00:54:07;11.90;99.90
21123;DHT22;10719;48.130;11.630;2023-05-07T00:56:34;11.90;99.90
21123;DHT22;10719;48.130;11.630;2023-05-07T00:59:01;11.90;99.90
21123;DHT22;10719;48.130;11.630;2023-05-07T01:01:28;11.90;99.90
21123;DHT22;10719;48.130;11.630;2023-05-07T01:03:53;11.80;99.90
21123;DHT22;10719;48.130;11.630;2023-05-07T01:06:20;11.80;99.90
21123;DHT22;10719;48.130;11.630;2023-05-07T01:08:46;11.70;99.90
21123;DHT22;10719;48.130;11.630;2023-05-07T01:11:13;11.70;99.90
21123;DHT22;10719;48.130;11.630;2023-05-07T01:13:39;11.70;99.90
21123;DHT22;10719;48.130;11.630;2023-05-07T01:16:06;11.70;99.90
21123;DHT22;10719;48.130;11.630;2023-05-07T01:18:32;11.60;99.90
21123;DHT22;10719;48.130;11.630;2023-05-07T01:20:58;11.60;99.90
21123;DHT22;10719;48.130;11.630;2023-05-07T01:23:25;11.60;99.90
21123;DHT22;10719;48.130;11.630;2023-05-07T01:25:53;11.60;99.90
21123;DHT22;10719;48.130;11.630;2023-05-07T01:28:19;11.60;99.90
21123;DHT22;10719;48.130;11.630;2023-05-07T01:30:48;11.60;99.90
21123;DHT22;10719;48.130;11.630;2023-05-07T01:33:16;11.60;99.90
21123;DHT22;10719;48.130;11.630;2023-05-07T01:35:46;11.70;99.90
21123;DHT22;10719;48.130;11.630;2023-05-07T01:38:13;11.70;99.90
21123;DHT22;10719;48.130;11.630;2023-05-07T01:40:38;11.70;99.90
21123;DHT22;10719;48.130;11.630;2023-05-07T01:43:05;11.80;99.90
21123;DHT22;10719;48.130;11.630;2023-05-07T01:45:31;11.60;99.90
21123;DHT22;10719;48.130;11.630;2023-05-07T01:47:58;11.50;99.90
21123;DHT22;10719;48.130;11.630;2023-05-07T01:50:25;11.60;99.90
21123;DHT22;10719;48.130;11.630;2023-05-07T01:52:51;11.60;99.90
21123;DHT22;10719;48.130;11.630;2023-05-07T01:55:16;11.60;99.90
21123;DHT22;10719;48.130;11.630;2023-05-07T01:57:42;11.50;99.90
21123;DHT22;10719;48.130;11.630;2023-05-07T02:00:08;11.50;99.90
21123;DHT22;10719;48.130;11.630;2023-05-07T02:02:34;11.50;99.90
21123;DHT22;10719;48.130;11.630;2023-05-07T02:05:00;11.50;99.90
21123;DHT22;10719;48.130;11.630;2023-05-07T02:07:27;11.40;99.90
21123;DHT22;10719;48.130;11.630;2023-05-07T02:09:53;11.40;99.90
21123;DHT22;10719;48.130;11.630;2023-05-07T02:12:20;11.40;99.90
21123;DHT22;10719;48.130;11.630;2023-05-07T02:14:46;11.40;99.90
21123;DHT22;10719;48.130;11.630;2023-05-07T02:17:12;11.30;99.90
21123;DHT22;10719;48.130;11.630;2023-05-07T02:19:37;11.30;99.90
21123;DHT22;10719;48.130;11.630;2023-05-07T02:22:03;11.30;99.90
21123;DHT22;10719;48.130;11.630;2023-05-07T02:24:28;11.30;99.90
21123;DHT22;10719;48.130;11.630;2023-05-07T02:26:54;11.30;99.90
21123;DHT22;10719;48.130;11.630;2023-05-07T02:29:19;11.30;99.90
21123;DHT22;10719;48.130;11.630;2023-05-07T02:31:45;11.30;99.90
21123;DHT22;10719;48.130;11.630;2023-05-07T02:34:11;11.30;99.90
21123;DHT22;10719;48.130;11.630;2023-05-07T02:36:36;11.20;99.90
21123;DHT22;10719;48.130;11.630;2023-05-07T02:39:02;11.20;99.90
21123;DHT22;10719;48.130;11.630;2023-05-07T02:41:28;11.20;99.90
21123;DHT22;10719;48.130;11.630;2023-05-07T02:43:53;11.10;99.90
21123;DHT22;10719;48.130;11.630;2023-05-07T02:46:19;11.10;99.90
21123;DHT22;10719;48.130;11.630;2023-05-07T02:48:45;11.00;99.90
21123;DHT22;10719;48.130;11.630;2023-05-07T02:51:10;11.00;99.90
21123;DHT22;10719;48.130;11.630;2023-05-07T02:53:36;11.00;99.90
21123;DHT22;10719;48.130;11.630;2023-05-07T02:56:02;11.00;99.90
21123;DHT22;10719;48.130;11.630;2023-05-07T02:58:28;11.00;99.90
21123;DHT22;10719;48.130;11.630;2023-05-07T03:00:54;11.00;99.90
21123;DHT22;10719;48.130;11.630;2023-05-07T03:03:22;11.00;99.90
21123;DHT22;10719;48.130;11.630;2023-05-07T03:05:48;10.90;99.90
21123;DHT22;10719;48.130;11.630;2023-05-07T03:08:13;10.90;99.90
21123;DHT22;10719;48.130;11.630;2023-05-07T03:10:39;11.00;99.90
21123;DHT22;10719;48.130;11.630;2023-05-07T03:13:05;11.00;99.90
21123;DHT22;10719;48.130;11.630;2023-05-07T03:15:30;10.90;99.90
21123;DHT22;10719;48.130;11.630;2023-05-07T03:17:56;10.90;99.90
21123;DHT22;10719;48.130;11.630;2023-05-07T03:20:22;10.90;99.90
21123;DHT22;10719;48.130;11.630;2023-05-07T03:22:48;10.90;99.90
21123;DHT22;10719;48.130;11.630;2023-05-07T03:25:20;10.90;99.90
21123;DHT22;10719;48.130;11.630;2023-05-07T03:27:45;10.80;99.90
21123;DHT22;10719;48.130;11.630;2023-05-07T03:30:11;10.90;99.90
21123;DHT22;10719;48.130;11.630;2023-05-07T03:32:37;10.90;99.90
21123;DHT22;10719;48.130;11.630;2023-05-07T03:35:03;10.90;99.90
21123;DHT22;10719;48.130;11.630;2023-05-07T03:37:28;10.80;99.90
21123;DHT22;10719;48.130;11.630;2023-05-07T03:39:54;10.80;99.90
21123;DHT22;10719;48.130;11.630;2023-05-07T03:42:20;10.70;99.90
21123;DHT22;10719;48.130;11.630;2023-05-07T03:44:45;10.70;99.90
21123;DHT22;10719;48.130;11.630;2023-05-07T03:47:11;10.70;99.90
21123;DHT22;10719;48.130;11.630;2023-05-07T03:49:38;10.70;99.90
21123;DHT22;10719;48.130;11.630;2023-05-07T03:52:04;10.80;99.90
21123;DHT22;10719;48.130;11.630;2023-05-07T03:54:30;10.70;99.90
21123;DHT22;10719;48.130;11.630;2023-05-07T03:56:56;10.70;99.90
21123;DHT22;10719;48.130;11.630;2023-05-07T03:59:22;10.80;99.90
21123;DHT22;10719;48.130;11.630;2023-05-07T04:01:47;10.80;99.90
21123;DHT22;10719;48.130;11.630;2023-05-07T04:04:14;10.70;99.90
21123;DHT22;10719;48.130;11.630;2023-05-07T04:06:40;10.70;99.90
21123;DHT22;10719;48.130;11.630;2023-05-07T04:09:06;10.70;99.90
21123;DHT22;10719;48.130;11.630;2023-05-07T04:11:32;10.70;99.90
21123;DHT22;10719;48.130;11.630;2023-05-07T04:13:57;10.70;99.90
21123;DHT22;10719;48.130;11.630;2023-05-07T04:16:23;10.70;99.90
21123;DHT22;10719;48.130;11.630;2023-05-07T04:18:48;10.80;99.90
21123;DHT22;10719;48.130;11.630;2023-05-07T04:21:19;10.80;99.90
21123;DHT22;10719;48.130;11.630;2023-05-07T04:23:46;10.80;99.90
21123;DHT22;10719;48.130;11.630;2023-05-07T04:26:11;10.80;99.90
21123;DHT22;10719;48.130;11.630;2023-05-07T04:28:38;10.80;99.90
21123;DHT22;10719;48.130;11.630;2023-05-07T04:31:05;10.90;99.90
21123;DHT22;10719;48.130;11.630;2023-05-07T04:33:31;10.90;99.90
21123;DHT22;10719;48.130;11.630;2023-05-07T04:35:56;11.00;99.90
21123;DHT22;10719;48.130;11.630;2023-05-07T04:38:22;11.00;99.90
21123;DHT22;10719;48.130;11.630;2023-05-07T04:40:49;11.00;99.90
21123;DHT22;10719;48.130;11.630;2023-05-07T04:43:14;11.00;99.90
21123;DHT22;10719;48.130;11.630;2023-05-07T04:45:41;11.00;99.90
21123;DHT22;10719;48.130;11.630;2023-05-07T04:48:08;11.10;99.90
21123;DHT22;10719;48.130;11.630;2023-05-07T04:50:34;11.10;99.90
21123;DHT22;10719;48.130;11.630;2023-05-07T04:53:00;11.10;99.90
21123;DHT22;10719;48.130;11.630;2023-05-07T04:55:25;11.20;99.90
21123;DHT22;10719;48.130;11.630;2023-05-07T04:57:52;11.20;99.90
21123;DHT22;10719;48.130;11.630;2023-05-07T05:00:18;11.20;99.90
21123;DHT22;10719;48.130;11.630;2023-05-07T05:02:45;11.20;99.90
21123;DHT22;10719;48.130;11.630;2023-05-07T05:05:11;11.10;99.90
21123;DHT22;10719;48.130;11.630;2023-05-07T05:07:37;11.10;99.90
21123;DHT22;10719;48.130;11.630;2023-05-07T05:10:03;11.20;99.90
21123;DHT22;10719;48.130;11.630;2023-05-07T05:12:29;11.10;99.90
21123;DHT22;10719;48.130;11.630;2023-05-07T05:14:55;11.10;99.90
21123;DHT22;10719;48.130;11.630;2023-05-07T05:17:21;11.30;99.90
21123;DHT22;10719;48.130;11.630;2023-05-07T05:19:46;11.30;99.90
21123;DHT22;10719;48.130;11.630;2023-05-07T05:22:12;11.30;99.90
21123;DHT22;10719;48.130;11.630;2023-05-07T05:24:38;11.20;99.90
21123;DHT22;10719;48.130;11.630;2023-05-07T05:27:03;11.30;99.90
21123;DHT22;10719;48.130;11.630;2023-05-07T05:29:29;11.30;99.90
21123;DHT22;10719;48.130;11.630;2023-05-07T05:31:56;11.30;99.90
21123;DHT22;10719;48.130;11.630;2023-05-07T05:34:22;11.40;99.90
21123;DHT22;10719;48.130;11.630;2023-05-07T05:36:48;11.40;99.90
21123;DHT22;10719;48.130;11.630;2023-05-07T05:39:13;11.50;99.90
21123;DHT22;10719;48.130;11.630;2023-05-07T05:41:39;11.50;99.90
21123;DHT22;10719;48.130;11.630;2023-05-07T05:44:06;11.60;99.90
21123;DHT22;10719;48.130;11.630;2023-05-07T05:46:31;11.60;99.90
21123;DHT22;10719;48.130;11.630;2023-05-07T05:48:57;11.70;99.90
21123;DHT22;10719;48.130;11.630;2023-05-07T05:51:22;11.80;99.90
21123;DHT22;10719;48.130;11.630;2023-05-07T05:53:48;11.90;99.90
21123;DHT22;10719;48.130;11.630;2023-05-07T05:56:15;12.00;99.90
21123;DHT22;10719;48.130;11.630;2023-05-07T05:58:41;12.10;99.90
21123;DHT22;10719;48.130;11.630;2023-05-07T06:01:07;12.30;99.90
21123;DHT22;10719;48.130;11.630;2023-05-07T06:03:32;12.40;99.90
21123;DHT22;10719;48.130;11.630;2023-05-07T06:05:58;12.40;99.90
21123;DHT22;10719;48.130;11.630;2023-05-07T06:08:25;12.60;99.90
21123;DHT22;10719;48.130;11.630;2023-05-07T06:10:51;12.70;99.90
21123;DHT22;10719;48.130;11.630;2023-05-07T06:13:17;12.90;99.90
21123;DHT22;10719;48.130;11.630;2023-05-07T06:15:42;12.90;99.90
21123;DHT22;10719;48.130;11.630;2023-05-07T06:18:08;13.10;99.90
21123;DHT22;10719;48.130;11.630;2023-05-07T06:20:33;13.20;99.90
21123;DHT22;10719;48.130;11.630;2023-05-07T06:22:59;13.30;99.90
21123;DHT22;10719;48.130;11.630;2023-05-07T06:25:25;13.40;99.90
21123;DHT22;10719;48.130;11.630;2023-05-07T06:27:50;13.50;99.90
21123;DHT22;10719;48.130;11.630;2023-05-07T06:30:16;13.70;99.90
21123;DHT22;10719;48.130;11.630;2023-05-07T06:32:42;13.80;99.90
21123;DHT22;10719;48.130;11.630;2023-05-07T06:35:08;13.90;99.90
21123;DHT22;10719;48.130;11.630;2023-05-07T06:37:33;14.00;99.90
21123;DHT22;10719;48.130;11.630;2023-05-07T06:39:59;14.10;99.90
21123;DHT22;10719;48.130;11.630;2023-05-07T06:42:24;14.30;99.90
21123;DHT22;10719;48.130;11.630;2023-05-07T06:44:50;14.40;99.90
21123;DHT22;10719;48.130;11.630;2023-05-07T06:47:16;14.50;99.90
21123;DHT22;10719;48.130;11.630;2023-05-07T06:49:41;14.60;99.90
21123;DHT22;10719;48.130;11.630;2023-05-07T06:52:07;14.70;99.90
21123;DHT22;10719;48.130;11.630;2023-05-07T06:54:32;14.90;99.90
21123;DHT22;10719;48.130;11.630;2023-05-07T06:56:58;15.00;99.90
21123;DHT22;10719;48.130;11.630;2023-05-07T06:59:24;15.10;99.90
21123;DHT22;10719;48.130;11.630;2023-05-07T07:01:49;15.30;99.90
21123;DHT22;10719;48.130;11.630;2023-05-07T07:04:15;15.40;99.90
21123;DHT22;10719;48.130;11.630;2023-05-07T07:06:40;15.50;99.90
21123;DHT22;10719;48.130;11.630;2023-05-07T07:09:06;15.60;99.90
21123;DHT22;10719;48.130;11.630;2023-05-07T07:11:32;15.80;99.90
21123;DHT22;10719;48.130;11.630;2023-05-07T07:13:57;15.90;99.90
21123;DHT22;10719;48.130;11.630;2023-05-07T07:16:24;16.00;99.90
21123;DHT22;10719;48.130;11.630;2023-05-07T07:18:50;16.10;99.90
21123;DHT22;10719;48.130;11.630;2023-05-07T07:21:16;16.10;99.90
21123;DHT22;10719;48.130;11.630;2023-05-07T07:23:41;16.20;99.90
21123;DHT22;10719;48.130;11.630;2023-05-07T07:26:07;16.30;99.90
21123;DHT22;10719;48.130;11.630;2023-05-07T07:28:32;16.40;99.90
21123;DHT22;10719;48.130;11.630;2023-05-07T07:30:58;16.50;99.90
21123;DHT22;10719;48.130;11.630;2023-05-07T07:33:24;16.50;99.90
21123;DHT22;10719;48.130;11.630;2023-05-07T07:35:49;16.70;99.90
21123;DHT22;10719;48.130;11.630;2023-05-07T07:38:15;16.70;99.90
21123;DHT22;10719;48.130;11.630;2023-05-07T07:40:40;16.80;99.90
21123;DHT22;10719;48.130;11.630;2023-05-07T07:43:06;16.80;99.90
21123;DHT22;10719;48.130;11.630;2023-05-07T07:45:32;16.90;99.90
21123;DHT22;10719;48.130;11.630;2023-05-07T07:47:57;17.00;99.90
21123;DHT22;10719;48.130;11.630;2023-05-07T07:50:23;17.10;99.90
21123;DHT22;10719;48.130;11.630;2023-05-07T07:52:48;17.20;99.90
21123;DHT22;10719;48.130;11.630;2023-05-07T07:55:14;17.20;99.90
21123;DHT22;10719;48.130;11.630;2023-05-07T07:57:46;17.30;99.90
21123;DHT22;10719;48.130;11.630;2023-05-07T08:00:12;17.50;99.90
21123;DHT22;10719;48.130;11.630;2023-05-07T08:02:37;17.50;99.90
21123;DHT22;10719;48.130;11.630;2023-05-07T08:05:03;17.60;99.90
21123;DHT22;10719;48.130;11.630;2023-05-07T08:07:29;17.70;99.90
21123;DHT22;10719;48.130;11.630;2023-05-07T08:09:55;17.90;99.90
21123;DHT22;10719;48.130;11.630;2023-05-07T08:12:20;18.00;99.90
21123;DHT22;10719;48.130;11.630;2023-05-07T08:14:46;18.10;99.90
21123;DHT22;10719;48.130;11.630;2023-05-07T08:17:12;18.20;99.90
21123;DHT22;10719;48.130;11.630;2023-05-07T08:19:38;18.30;99.90
21123;DHT22;10719;48.130;11.630;2023-05-07T08:22:04;18.30;99.90
21123;DHT22;10719;48.130;11.630;2023-05-07T08:24:30;18.50;99.90
21123;DHT22;10719;48.130;11.630;2023-05-07T08:26:56;18.50;99.90
21123;DHT22;10719;48.130;11.630;2023-05-07T08:29:21;18.60;99.90
21123;DHT22;10719;48.130;11.630;2023-05-07T08:31:47;18.70;99.90
21123;DHT22;10719;48.130;11.630;2023-05-07T08:34:13;18.90;99.90
21123;DHT22;10719;48.130;11.630;2023-05-07T08:36:38;19.00;99.90
21123;DHT22;10719;48.130;11.630;2023-05-07T08:39:07;19.30;99.90
21123;DHT22;10719;48.130;11.630;2023-05-07T08:41:32;19.60;99.90
21123;DHT22;10719;48.130;11.630;2023-05-07T08:43:59;20.00;99.90
21123;DHT22;10719;48.130;11.630;2023-05-07T08:46:30;20.20;99.90
21123;DHT22;10719;48.130;11.630;2023-05-07T08:48:56;20.20;99.90
21123;DHT22;10719;48.130;11.630;2023-05-07T08:51:21;20.50;99.90
21123;DHT22;10719;48.130;11.630;2023-05-07T08:53:48;20.60;99.90
21123;DHT22;10719;48.130;11.630;2023-05-07T08:56:15;20.90;99.90
21123;DHT22;10719;48.130;11.630;2023-05-07T08:58:42;21.10;99.90
21123;DHT22;10719;48.130;11.630;2023-05-07T09:01:09;21.20;99.90
21123;DHT22;10719;48.130;11.630;2023-05-07T09:03:38;21.30;99.90
21123;DHT22;10719;48.130;11.630;2023-05-07T09:06:04;21.60;99.90
21123;DHT22;10719;48.130;11.630;2023-05-07T09:08:31;21.40;99.90
21123;DHT22;10719;48.130;11.630;2023-05-07T09:10:57;21.40;99.90
21123;DHT22;10719;48.130;11.630;2023-05-07T09:13:23;21.80;99.90
21123;DHT22;10719;48.130;11.630;2023-05-07T09:15:48;22.20;99.90
21123;DHT22;10719;48.130;11.630;2023-05-07T09:18:14;22.20;99.90
21123;DHT22;10719;48.130;11.630;2023-05-07T09:20:40;21.90;99.90
21123;DHT22;10719;48.130;11.630;2023-05-07T09:23:08;21.80;99.90
21123;DHT22;10719;48.130;11.630;2023-05-07T09:25:35;21.90;99.90
21123;DHT22;10719;48.130;11.630;2023-05-07T09:28:02;21.90;99.90
21123;DHT22;10719;48.130;11.630;2023-05-07T09:30:29;22.10;99.90
21123;DHT22;10719;48.130;11.630;2023-05-07T09:32:55;22.20;99.90
21123;DHT22;10719;48.130;11.630;2023-05-07T09:35:21;22.40;99.90
21123;DHT22;10719;48.130;11.630;2023-05-07T09:37:49;22.40;99.90
21123;DHT22;10719;48.130;11.630;2023-05-07T09:40:26;22.40;99.90
21123;DHT22;10719;48.130;11.630;2023-05-07T09:42:52;22.90;99.90
21123;DHT22;10719;48.130;11.630;2023-05-07T09:45:28;23.10;99.90
21123;DHT22;10719;48.130;11.630;2023-05-07T09:47:56;22.90;99.90
21123;DHT22;10719;48.130;11.630;2023-05-07T09:50:27;23.20;99.90
21123;DHT22;10719;48.130;11.630;2023-05-07T09:52:54;23.40;99.90
21123;DHT22;10719;48.130;11.630;2023-05-07T09:55:21;23.50;99.90
21123;DHT22;10719;48.130;11.630;2023-05-07T09:57:50;23.40;99.90
21123;DHT22;10719;48.130;11.630;2023-05-07T10:00:18;22.70;99.90
21123;DHT22;10719;48.130;11.630;2023-05-07T10:02:46;22.70;99.90
21123;DHT22;10719;48.130;11.630;2023-05-07T10:05:14;23.00;99.90
21123;DHT22;10719;48.130;11.630;2023-05-07T10:07:40;23.30;99.90
21123;DHT22;10719;48.130;11.630;2023-05-07T10:10:07;23.50;99.90
21123;DHT22;10719;48.130;11.630;2023-05-07T10:12:32;23.60;99.90
21123;DHT22;10719;48.130;11.630;2023-05-07T10:15:08;23.40;99.90
21123;DHT22;10719;48.130;11.630;2023-05-07T10:17:39;23.70;99.90
21123;DHT22;10719;48.130;11.630;2023-05-07T10:20:06;23.80;99.90
21123;DHT22;10719;48.130;11.630;2023-05-07T10:22:51;23.90;99.90
21123;DHT22;10719;48.130;11.630;2023-05-07T10:25:28;24.10;99.90
21123;DHT22;10719;48.130;11.630;2023-05-07T10:27:58;23.50;99.90
21123;DHT22;10719;48.130;11.630;2023-05-07T10:30:34;23.50;99.90
21123;DHT22;10719;48.130;11.630;2023-05-07T10:33:04;23.20;99.90
21123;DHT22;10719;48.130;11.630;2023-05-07T10:35:40;23.20;99.90
21123;DHT22;10719;48.130;11.630;2023-05-07T10:38:07;23.40;99.90
21123;DHT22;10719;48.130;11.630;2023-05-07T10:40:33;23.40;99.90
21123;DHT22;10719;48.130;11.630;2023-05-07T10:43:00;23.20;99.90
21123;DHT22;10719;48.130;11.630;2023-05-07T10:45:27;23.40;99.90
21123;DHT22;10719;48.130;11.630;2023-05-07T10:48:13;23.10;99.90
21123;DHT22;10719;48.130;11.630;2023-05-07T10:50:40;23.30;99.90
21123;DHT22;10719;48.130;11.630;2023-05-07T10:55:48;23.20;99.90
21123;DHT22;10719;48.130;11.630;2023-05-07T10:58:29;23.60;99.90
21123;DHT22;10719;48.130;11.630;2023-05-07T11:01:00;23.80;99.90
21123;DHT22;10719;48.130;11.630;2023-05-07T11:03:27;24.00;99.90
21123;DHT22;10719;48.130;11.630;2023-05-07T11:06:15;24.00;99.90
21123;DHT22;10719;48.130;11.630;2023-05-07T11:11:19;24.40;99.90
21123;DHT22;10719;48.130;11.630;2023-05-07T11:13:48;24.70;99.90
21123;DHT22;10719;48.130;11.630;2023-05-07T11:16:21;24.50;99.90
21123;DHT22;10719;48.130;11.630;2023-05-07T11:18:53;24.50;99.90
21123;DHT22;10719;48.130;11.630;2023-05-07T11:21:48;24.30;99.90
21123;DHT22;10719;48.130;11.630;2023-05-07T11:24:14;24.40;99.90
21123;DHT22;10719;48.130;11.630;2023-05-07T11:26:48;24.00;99.90
21123;DHT22;10719;48.130;11.630;2023-05-07T11:31:41;24.60;99.90
21123;DHT22;10719;48.130;11.630;2023-05-07T11:34:07;24.90;99.90
21123;DHT22;10719;48.130;11.630;2023-05-07T11:36:33;25.20;99.90
21123;DHT22;10719;48.130;11.630;2023-05-07T11:38:59;25.60;99.90
21123;DHT22;10719;48.130;11.630;2023-05-07T11:41:35;25.90;99.90
21123;DHT22;10719;48.130;11.630;2023-05-07T11:44:02;25.60;99.90
21123;DHT22;10719;48.130;11.630;2023-05-07T11:46:28;26.00;99.90
21123;DHT22;10719;48.130;11.630;2023-05-07T11:48:54;26.10;99.90
21123;DHT22;10719;48.130;11.630;2023-05-07T11:51:22;25.70;99.90
21123;DHT22;10719;48.130;11.630;2023-05-07T11:53:48;25.60;99.90
21123;DHT22;10719;48.130;11.630;2023-05-07T11:56:15;26.00;99.90
21123;DHT22;10719;48.130;11.630;2023-05-07T11:58:42;26.00;99.90
21123;DHT22;10719;48.130;11.630;2023-05-07T12:01:09;25.70;99.90
21123;DHT22;10719;48.130;11.630;2023-05-07T12:03:35;26.10;99.90
21123;DHT22;10719;48.130;11.630;2023-05-07T12:06:05;26.10;99.90
21123;DHT22;10719;48.130;11.630;2023-05-07T12:08:31;25.70;99.90
21123;DHT22;10719;48.130;11.630;2023-05-07T12:10:56;26.20;99.90
21123;DHT22;10719;48.130;11.630;2023-05-07T12:13:24;27.10;99.90
21123;DHT22;10719;48.130;11.630;2023-05-07T12:15:54;26.80;99.90
21123;DHT22;10719;48.130;11.630;2023-05-07T12:18:21;27.10;99.90
21123;DHT22;10719;48.130;11.630;2023-05-07T12:20:47;27.00;99.90
21123;DHT22;10719;48.130;11.630;2023-05-07T12:23:14;26.90;99.90
21123;DHT22;10719;48.130;11.630;2023-05-07T12:25:41;28.00;99.90
21123;DHT22;10719;48.130;11.630;2023-05-07T12:28:15;27.30;99.90
21123;DHT22;10719;48.130;11.630;2023-05-07T12:30:43;26.90;99.90
21123;DHT22;10719;48.130;11.630;2023-05-07T12:33:09;26.00;99.90
21123;DHT22;10719;48.130;11.630;2023-05-07T12:35:40;25.50;99.90
21123;DHT22;10719;48.130;11.630;2023-05-07T12:38:14;25.50;99.90
21123;DHT22;10719;48.130;11.630;2023-05-07T12:40:44;25.70;99.90
21123;DHT22;10719;48.130;11.630;2023-05-07T12:43:27;25.90;99.90
21123;DHT22;10719;48.130;11.630;2023-05-07T12:45:55;26.30;99.90
21123;DHT22;10719;48.130;11.630;2023-05-07T12:48:21;26.00;99.90
21123;DHT22;10719;48.130;11.630;2023-05-07T12:50:54;26.10;99.90
21123;DHT22;10719;48.130;11.630;2023-05-07T12:53:21;26.30;99.90
21123;DHT22;10719;48.130;11.630;2023-05-07T12:55:49;25.90;99.90
21123;DHT22;10719;48.130;11.630;2023-05-07T12:58:29;25.80;99.90
21123;DHT22;10719;48.130;11.630;2023-05-07T13:00:56;25.80;99.90
21123;DHT22;10719;48.130;11.630;2023-05-07T13:03:25;26.20;99.90
21123;DHT22;10719;48.130;11.630;2023-05-07T13:05:51;26.60;99.90
21123;DHT22;10719;48.130;11.630;2023-05-07T13:08:25;26.80;99.90
21123;DHT22;10719;48.130;11.630;2023-05-07T13:10:51;26.40;99.90
21123;DHT22;10719;48.130;11.630;2023-05-07T13:13:18;27.10;99.90
21123;DHT22;10719;48.130;11.630;2023-05-07T13:15:44;27.70;99.90
21123;DHT22;10719;48.130;11.630;2023-05-07T13:18:10;27.30;99.90
21123;DHT22;10719;48.130;11.630;2023-05-07T13:20:36;27.10;99.90
21123;DHT22;10719;48.130;11.630;2023-05-07T13:23:02;26.80;99.90
21123;DHT22;10719;48.130;11.630;2023-05-07T13:25:30;26.60;99.90
21123;DHT22;10719;48.130;11.630;2023-05-07T13:27:57;26.30;99.90
21123;DHT22;10719;48.130;11.630;2023-05-07T13:30:23;26.40;99.90
21123;DHT22;10719;48.130;11.630;2023-05-07T13:32:48;26.60;99.90
21123;DHT22;10719;48.130;11.630;2023-05-07T13:35:16;27.20;99.90
21123;DHT22;10719;48.130;11.630;2023-05-07T13:37:41;27.50;99.90
21123;DHT22;10719;48.130;11.630;2023-05-07T13:40:07;27.70;99.90
21123;DHT22;10719;48.130;11.630;2023-05-07T13:42:33;28.10;99.90
21123;DHT22;10719;48.130;11.630;2023-05-07T13:44:59;27.90;99.90
21123;DHT22;10719;48.130;11.630;2023-05-07T13:47:31;27.30;99.90
21123;DHT22;10719;48.130;11.630;2023-05-07T13:49:56;27.50;99.90
21123;DHT22;10719;48.130;11.630;2023-05-07T13:52:22;28.20;99.90
21123;DHT22;10719;48.130;11.630;2023-05-07T13:54:47;28.40;99.90
21123;DHT22;10719;48.130;11.630;2023-05-07T13:57:13;29.30;99.90
21123;DHT22;10719;48.130;11.630;2023-05-07T13:59:39;29.20;99.90
21123;DHT22;10719;48.130;11.630;2023-05-07T14:02:05;29.50;99.90
21123;DHT22;10719;48.130;11.630;2023-05-07T14:04:31;28.00;99.90
21123;DHT22;10719;48.130;11.630;2023-05-07T14:06:56;27.40;99.90
21123;DHT22;10719;48.130;11.630;2023-05-07T14:09:22;28.30;99.90
21123;DHT22;10719;48.130;11.630;2023-05-07T14:11:47;29.40;99.90
21123;DHT22;10719;48.130;11.630;2023-05-07T14:14:17;29.00;99.90
21123;DHT22;10719;48.130;11.630;2023-05-07T14:16:42;29.10;99.90
21123;DHT22;10719;48.130;11.630;2023-05-07T14:19:08;28.80;99.90
21123;DHT22;10719;48.130;11.630;2023-05-07T14:21:33;28.50;99.90
21123;DHT22;10719;48.130;11.630;2023-05-07T14:23:59;28.10;99.90
21123;DHT22;10719;48.130;11.630;2023-05-07T14:26:25;27.80;99.90
21123;DHT22;10719;48.130;11.630;2023-05-07T14:28:52;27.30;99.90
21123;DHT22;10719;48.130;11.630;2023-05-07T14:31:20;26.70;99.90
21123;DHT22;10719;48.130;11.630;2023-05-07T14:33:46;25.80;99.90
21123;DHT22;10719;48.130;11.630;2023-05-07T14:36:11;25.10;99.90
21123;DHT22;10719;48.130;11.630;2023-05-07T14:38:37;25.20;99.90
21123;DHT22;10719;48.130;11.630;2023-05-07T14:41:03;24.90;99.90
21123;DHT22;10719;48.130;11.630;2023-05-07T14:43:29;24.30;99.90
21123;DHT22;10719;48.130;11.630;2023-05-07T14:45:54;24.30;99.90
21123;DHT22;10719;48.130;11.630;2023-05-07T14:48:20;24.30;99.90
21123;DHT22;10719;48.130;11.630;2023-05-07T14:50:49;24.50;99.90
21123;DHT22;10719;48.130;11.630;2023-05-07T14:53:15;24.60;99.90
21123;DHT22;10719;48.130;11.630;2023-05-07T14:55:41;25.10;99.90
21123;DHT22;10719;48.130;11.630;2023-05-07T14:58:07;25.40;99.90
21123;DHT22;10719;48.130;11.630;2023-05-07T15:00:33;26.20;99.90
21123;DHT22;10719;48.130;11.630;2023-05-07T15:03:05;25.70;99.90
21123;DHT22;10719;48.130;11.630;2023-05-07T15:05:31;25.00;99.90
21123;DHT22;10719;48.130;11.630;2023-05-07T15:07:57;25.00;99.90
21123;DHT22;10719;48.130;11.630;2023-05-07T15:10:23;24.50;99.90
21123;DHT22;10719;48.130;11.630;2023-05-07T15:12:48;23.40;99.90
21123;DHT22;10719;48.130;11.630;2023-05-07T15:15:14;23.00;99.90
21123;DHT22;10719;48.130;11.630;2023-05-07T15:17:40;22.90;99.90
21123;DHT22;10719;48.130;11.630;2023-05-07T15:20:06;22.60;99.90